Hayase Maru — JD2583 — position and weather

sailwx.info

Track history (hours):
 
Tides and Currents Weather Stations Pressure Air Temp Water Temp Dewpoint Dewpoint Depression Visibility Wind Speed Wind Dir Waves Ship Positions

Hayase Maru

Last reported at 2017-Feb-23 17:30 UTC. Time now 2017-Feb-24 02:03 UTC.
Position N 35°22' E 139°54'.

; draft 4 m.

Type: Ship. MMSI: 431000395.

Date/timePositionNaut miles runAvg speedWind from/ knotsBaromVisibWave heightAir tempDewpointWater temp
2017-Feb-23 17:30N 35°22' E 139°54'0 0.0
2017-Feb-23 15:30N 35°22' E 139°54'0 0.0
2017-Feb-23 14:12N 35°22' E 139°54'0 0.0
2017-Feb-23 08:24N 35°22' E 139°54'1 0.8
2017-Feb-23 07:28N 35°22' E 139°53'0 0.0
2017-Feb-23 06:28N 35°22' E 139°53'0 0.0
2017-Feb-23 04:28N 35°22' E 139°53'0 0.0
2017-Feb-23 03:04N 35°22' E 139°53'0 0.0
2017-Feb-23 02:28N 35°22' E 139°53'0 0.0
2017-Feb-23 01:22N 35°22' E 139°53'0 0.0
2017-Feb-22 23:22N 35°22' E 139°53'0 0.0
2017-Feb-22 20:22N 35°22' E 139°53'0 0.0
2017-Feb-22 19:04N 35°22' E 139°53'0 0.0
2017-Feb-22 17:14N 35°22' E 139°53'5 8.1
2017-Feb-22 16:33N 35°27' E 139°50'1010.0
2017-Feb-22 15:33N 35°37' E 139°48'1 0.7
2017-Feb-22 14:33N 35°37' E 139°48'0 0.0
2017-Feb-22 13:33N 35°37' E 139°48'0 0.0
2017-Feb-22 12:33N 35°37' E 139°48'0 0.0
2017-Feb-22 11:33N 35°37' E 139°48'0 0.0
2017-Feb-22 10:33N 35°37' E 139°48'0 0.0
2017-Feb-22 09:33N 35°37' E 139°48'0 0.0
2017-Feb-22 08:34N 35°37' E 139°48'0 0.0
2017-Feb-22 07:33N 35°37' E 139°48'0 0.0
2017-Feb-22 06:33N 35°37' E 139°48'0 0.0
2017-Feb-22 05:33N 35°37' E 139°48'0 0.0
2017-Feb-22 04:33N 35°37' E 139°48'0 0.0
2017-Feb-22 03:34N 35°37' E 139°48'0 0.0
2017-Feb-22 02:33N 35°37' E 139°48'0 0.0
2017-Feb-22 01:34N 35°37' E 139°48'0 0.0
2017-Feb-22 00:33N 35°37' E 139°48'0 0.0
2017-Feb-21 23:33N 35°37' E 139°48'3 0.4
2017-Feb-21 16:33N 35°36' E 139°51'0 0.0
2017-Feb-21 01:14N 35°36' E 139°51'0 0.0
2017-Feb-20 22:24N 35°36' E 139°51'3 3.5
2017-Feb-20 21:33N 35°37' E 139°48'0 0.0
2017-Feb-20 18:25N 35°37' E 139°48'0 0.0
2017-Feb-20 17:33N 35°37' E 139°48'0 0.0
2017-Feb-20 16:13N 35°37' E 139°48'0 0.0
2017-Feb-20 15:33N 35°37' E 139°48'0 0.0
2017-Feb-20 14:34N 35°37' E 139°48'0 0.0
2017-Feb-20 13:33N 35°37' E 139°48'0 0.0
2017-Feb-20 12:34N 35°37' E 139°48'0 0.0
2017-Feb-20 10:16N 35°37' E 139°48'0 0.0
2017-Feb-20 09:33N 35°37' E 139°48'0 0.0
2017-Feb-20 08:33N 35°37' E 139°48'0 0.0
2017-Feb-20 07:30N 35°37' E 139°48'0 0.0
2017-Feb-20 06:33N 35°37' E 139°48'0 0.0
2017-Feb-20 04:19N 35°37' E 139°48'3 0.7
2017-Feb-20 00:13N 35°36' E 139°51'1 0.3
2017-Feb-19 21:33N 35°35' E 139°51'1010.4
2017-Feb-19 20:33N 35°25' E 139°47'1010.4
2017-Feb-19 19:33N 35°15' E 139°47'1111.1
2017-Feb-19 18:33N 35°05' E 139°42'238 9.8
2017-Feb-18 18:11N 34°05' E 135°02'811.8
2017-Feb-18 17:33N 34°13' E 135°03'1111.0
2017-Feb-18 16:33N 34°23' E 135°06'1111.3
2017-Feb-18 15:33N 34°31' E 135°16'7 7.1
2017-Feb-18 14:30N 34°35' E 135°23'0 0.0
2017-Feb-18 10:30N 34°35' E 135°23'0 0.0
2017-Feb-18 09:24N 34°35' E 135°23'0 0.0
2017-Feb-18 08:24N 34°35' E 135°23'0 0.0
2017-Feb-18 07:30N 34°35' E 135°23'3 0.3
2017-Feb-17 22:09N 34°35' E 135°27'4 6.8
2017-Feb-17 21:32N 34°36' E 135°22'10 9.8
2017-Feb-17 20:33N 34°35' E 135°10'1311.1
2017-Feb-17 19:25N 34°36' E 134°55'5 0.2
2017-Feb-16 15:22N 34°39' E 134°50'1113.3
2017-Feb-16 14:33N 34°37' E 135°03'2311.6
2017-Feb-16 12:33N 34°14' E 134°59'240 9.2
2017-Feb-15 10:26N 35°09' E 139°43'910.1
2017-Feb-15 09:33N 35°18' E 139°44'1010.0
2017-Feb-15 08:33N 35°28' E 139°46'2 2.1
2017-Feb-15 07:34N 35°29' E 139°48'3 3.3
2017-Feb-15 06:33N 35°31' E 139°45'0 0.0
2017-Feb-15 05:33N 35°31' E 139°45'0 0.0
2017-Feb-15 04:33N 35°31' E 139°45'0 0.0
2017-Feb-15 03:33N 35°31' E 139°45'0 0.0
2017-Feb-15 02:33N 35°31' E 139°45'0 0.0
2017-Feb-15 01:33N 35°31' E 139°45'0 0.0
2017-Feb-15 00:33N 35°31' E 139°45'0 0.0
2017-Feb-14 23:33N 35°31' E 139°45'0 0.0
2017-Feb-14 22:32N 35°31' E 139°45'0 0.0
2017-Feb-14 21:33N 35°31' E 139°45'0 0.0
2017-Feb-14 20:33N 35°31' E 139°45'0 0.0
2017-Feb-14 19:33N 35°31' E 139°45'0 0.0
2017-Feb-14 18:33N 35°31' E 139°45'0 0.0
2017-Feb-14 17:33N 35°31' E 139°45'0 0.0
2017-Feb-14 16:33N 35°31' E 139°45'0 0.0
2017-Feb-14 15:33N 35°31' E 139°45'0 0.0
2017-Feb-14 14:33N 35°31' E 139°45'0 0.0
2017-Feb-14 13:33N 35°31' E 139°45'0 0.0
2017-Feb-14 12:33N 35°31' E 139°45'0 0.0
2017-Feb-14 11:33N 35°31' E 139°45'0 0.0
2017-Feb-14 10:33N 35°31' E 139°45'1 1.0
2017-Feb-14 09:33N 35°30' E 139°45'4 4.5
2017-Feb-14 08:33N 35°29' E 139°39'0 0.0
2017-Feb-14 07:33N 35°29' E 139°39'0 0.0
2017-Feb-14 06:33N 35°29' E 139°39'4 3.4
2017-Feb-14 05:28N 35°26' E 139°43'0 0.0
2017-Feb-14 04:31N 35°26' E 139°43'1 1.2
2017-Feb-14 03:33N 35°27' E 139°44'10 9.6
2017-Feb-14 02:34N 35°36' E 139°48'2 1.5
2017-Feb-14 01:30N 35°38' E 139°48'0 0.0
2017-Feb-14 00:33N 35°38' E 139°48'0 0.0
2017-Feb-13 23:19N 35°38' E 139°48'3 0.5
2017-Feb-13 17:33N 35°36' E 139°51'  
Track history (hours):
 
Tides and Currents Weather Stations Pressure Air Temp Water Temp Dewpoint Dewpoint Depression Visibility Wind Speed Wind Dir Waves Ship Positions

Hayase Maru

Last reported at 2017-Feb-23 17:30 UTC. Time now 2017-Feb-24 02:03 UTC.
Position N 35°22' E 139°54'.

; draft 4 m.

Type: Ship. MMSI: 431000395.

Date/timePositionNaut miles runAvg speedWind from/ knotsBaromVisibWave heightAir tempDewpointWater temp
2017-Feb-23 17:30N 35°22' E 139°54'0 0.0
2017-Feb-23 15:30N 35°22' E 139°54'0 0.0
2017-Feb-23 14:12N 35°22' E 139°54'0 0.0
2017-Feb-23 08:24N 35°22' E 139°54'1 0.8
2017-Feb-23 07:28N 35°22' E 139°53'0 0.0
2017-Feb-23 06:28N 35°22' E 139°53'0 0.0
2017-Feb-23 04:28N 35°22' E 139°53'0 0.0
2017-Feb-23 03:04N 35°22' E 139°53'0 0.0
2017-Feb-23 02:28N 35°22' E 139°53'0 0.0
2017-Feb-23 01:22N 35°22' E 139°53'0 0.0
2017-Feb-22 23:22N 35°22' E 139°53'0 0.0
2017-Feb-22 20:22N 35°22' E 139°53'0 0.0
2017-Feb-22 19:04N 35°22' E 139°53'0 0.0
2017-Feb-22 17:14N 35°22' E 139°53'5 8.1
2017-Feb-22 16:33N 35°27' E 139°50'1010.0
2017-Feb-22 15:33N 35°37' E 139°48'1 0.7
2017-Feb-22 14:33N 35°37' E 139°48'0 0.0
2017-Feb-22 13:33N 35°37' E 139°48'0 0.0
2017-Feb-22 12:33N 35°37' E 139°48'0 0.0
2017-Feb-22 11:33N 35°37' E 139°48'0 0.0
2017-Feb-22 10:33N 35°37' E 139°48'0 0.0
2017-Feb-22 09:33N 35°37' E 139°48'0 0.0
2017-Feb-22 08:34N 35°37' E 139°48'0 0.0
2017-Feb-22 07:33N 35°37' E 139°48'0 0.0
2017-Feb-22 06:33N 35°37' E 139°48'0 0.0
2017-Feb-22 05:33N 35°37' E 139°48'0 0.0
2017-Feb-22 04:33N 35°37' E 139°48'0 0.0
2017-Feb-22 03:34N 35°37' E 139°48'0 0.0
2017-Feb-22 02:33N 35°37' E 139°48'0 0.0
2017-Feb-22 01:34N 35°37' E 139°48'0 0.0
2017-Feb-22 00:33N 35°37' E 139°48'0 0.0
2017-Feb-21 23:33N 35°37' E 139°48'3 0.4
2017-Feb-21 16:33N 35°36' E 139°51'0 0.0
2017-Feb-21 01:14N 35°36' E 139°51'0 0.0
2017-Feb-20 22:24N 35°36' E 139°51'3 3.5
2017-Feb-20 21:33N 35°37' E 139°48'0 0.0
2017-Feb-20 18:25N 35°37' E 139°48'0 0.0
2017-Feb-20 17:33N 35°37' E 139°48'0 0.0
2017-Feb-20 16:13N 35°37' E 139°48'0 0.0
2017-Feb-20 15:33N 35°37' E 139°48'0 0.0
2017-Feb-20 14:34N 35°37' E 139°48'0 0.0
2017-Feb-20 13:33N 35°37' E 139°48'0 0.0
2017-Feb-20 12:34N 35°37' E 139°48'0 0.0
2017-Feb-20 10:16N 35°37' E 139°48'0 0.0
2017-Feb-20 09:33N 35°37' E 139°48'0 0.0
2017-Feb-20 08:33N 35°37' E 139°48'0 0.0
2017-Feb-20 07:30N 35°37' E 139°48'0 0.0
2017-Feb-20 06:33N 35°37' E 139°48'0 0.0
2017-Feb-20 04:19N 35°37' E 139°48'3 0.7
2017-Feb-20 00:13N 35°36' E 139°51'1 0.3
2017-Feb-19 21:33N 35°35' E 139°51'1010.4
2017-Feb-19 20:33N 35°25' E 139°47'1010.4
2017-Feb-19 19:33N 35°15' E 139°47'1111.1
2017-Feb-19 18:33N 35°05' E 139°42'238 9.8
2017-Feb-18 18:11N 34°05' E 135°02'811.8
2017-Feb-18 17:33N 34°13' E 135°03'1111.0
2017-Feb-18 16:33N 34°23' E 135°06'1111.3
2017-Feb-18 15:33N 34°31' E 135°16'7 7.1
2017-Feb-18 14:30N 34°35' E 135°23'0 0.0
2017-Feb-18 10:30N 34°35' E 135°23'0 0.0
2017-Feb-18 09:24N 34°35' E 135°23'0 0.0
2017-Feb-18 08:24N 34°35' E 135°23'0 0.0
2017-Feb-18 07:30N 34°35' E 135°23'3 0.3
2017-Feb-17 22:09N 34°35' E 135°27'4 6.8
2017-Feb-17 21:32N 34°36' E 135°22'10 9.8
2017-Feb-17 20:33N 34°35' E 135°10'1311.1
2017-Feb-17 19:25N 34°36' E 134°55'5 0.2
2017-Feb-16 15:22N 34°39' E 134°50'1113.3
2017-Feb-16 14:33N 34°37' E 135°03'2311.6
2017-Feb-16 12:33N 34°14' E 134°59'240 9.2
2017-Feb-15 10:26N 35°09' E 139°43'910.1
2017-Feb-15 09:33N 35°18' E 139°44'1010.0
2017-Feb-15 08:33N 35°28' E 139°46'2 2.1
2017-Feb-15 07:34N 35°29' E 139°48'3 3.3
2017-Feb-15 06:33N 35°31' E 139°45'0 0.0
2017-Feb-15 05:33N 35°31' E 139°45'0 0.0
2017-Feb-15 04:33N 35°31' E 139°45'0 0.0
2017-Feb-15 03:33N 35°31' E 139°45'0 0.0
2017-Feb-15 02:33N 35°31' E 139°45'0 0.0
2017-Feb-15 01:33N 35°31' E 139°45'0 0.0
2017-Feb-15 00:33N 35°31' E 139°45'0 0.0
2017-Feb-14 23:33N 35°31' E 139°45'0 0.0
2017-Feb-14 22:32N 35°31' E 139°45'0 0.0
2017-Feb-14 21:33N 35°31' E 139°45'0 0.0
2017-Feb-14 20:33N 35°31' E 139°45'0 0.0
2017-Feb-14 19:33N 35°31' E 139°45'0 0.0
2017-Feb-14 18:33N 35°31' E 139°45'0 0.0
2017-Feb-14 17:33N 35°31' E 139°45'0 0.0
2017-Feb-14 16:33N 35°31' E 139°45'0 0.0
2017-Feb-14 15:33N 35°31' E 139°45'0 0.0
2017-Feb-14 14:33N 35°31' E 139°45'0 0.0
2017-Feb-14 13:33N 35°31' E 139°45'0 0.0
2017-Feb-14 12:33N 35°31' E 139°45'0 0.0
2017-Feb-14 11:33N 35°31' E 139°45'0 0.0
2017-Feb-14 10:33N 35°31' E 139°45'1 1.0
2017-Feb-14 09:33N 35°30' E 139°45'4 4.5
2017-Feb-14 08:33N 35°29' E 139°39'0 0.0
2017-Feb-14 07:33N 35°29' E 139°39'0 0.0
2017-Feb-14 06:33N 35°29' E 139°39'4 3.4
2017-Feb-14 05:28N 35°26' E 139°43'0 0.0
2017-Feb-14 04:31N 35°26' E 139°43'1 1.2
2017-Feb-14 03:33N 35°27' E 139°44'10 9.6
2017-Feb-14 02:34N 35°36' E 139°48'2 1.5
2017-Feb-14 01:30N 35°38' E 139°48'0 0.0
2017-Feb-14 00:33N 35°38' E 139°48'0 0.0
2017-Feb-13 23:19N 35°38' E 139°48'3 0.5
2017-Feb-13 17:33N 35°36' E 139°51'  

Dump ship's entire track history